sensor_id;sensor_type;location;lat;lon;timestamp;pressure;altitude;pressure_sealevel;temperature
70831;BMP180;58451;51.550;7.208;2023-07-31T00:00:17;100354.80;;;14.90
70831;BMP180;58451;51.550;7.208;2023-07-31T00:01:48;100353.80;;;14.90
70831;BMP180;58451;51.550;7.208;2023-07-31T00:03:20;100354.80;;;14.90
70831;BMP180;58451;51.550;7.208;2023-07-31T00:04:52;100351.00;;;14.90
70831;BMP180;58451;51.550;7.208;2023-07-31T00:06:24;100345.40;;;14.90
70831;BMP180;58451;51.550;7.208;2023-07-31T00:07:56;100343.00;;;14.90
70831;BMP180;58451;51.550;7.208;2023-07-31T00:09:28;100340.80;;;14.90
70831;BMP180;58451;51.550;7.208;2023-07-31T00:11:00;100334.20;;;14.88
70831;BMP180;58451;51.550;7.208;2023-07-31T00:12:32;100332.80;;;14.80
70831;BMP180;58451;51.550;7.208;2023-07-31T00:14:04;100325.80;;;14.88
70831;BMP180;58451;51.550;7.208;2023-07-31T00:15:36;100324.60;;;14.84
70831;BMP180;58451;51.550;7.208;2023-07-31T00:17:08;100319.40;;;14.90
70831;BMP180;58451;51.550;7.208;2023-07-31T00:18:40;100327.80;;;14.90
70831;BMP180;58451;51.550;7.208;2023-07-31T00:20:12;100327.40;;;14.90
70831;BMP180;58451;51.550;7.208;2023-07-31T00:21:44;100319.20;;;14.90
70831;BMP180;58451;51.550;7.208;2023-07-31T00:23:16;100316.20;;;14.90
70831;BMP180;58451;51.550;7.208;2023-07-31T00:24:49;100317.80;;;14.90
70831;BMP180;58451;51.550;7.208;2023-07-31T00:26:21;100317.60;;;15.00
70831;BMP180;58451;51.550;7.208;2023-07-31T00:27:52;100317.40;;;15.00
70831;BMP180;58451;51.550;7.208;2023-07-31T00:29:24;100311.20;;;15.00
70831;BMP180;58451;51.550;7.208;2023-07-31T00:30:56;100317.60;;;15.10
70831;BMP180;58451;51.550;7.208;2023-07-31T00:32:30;100315.80;;;15.10
70831;BMP180;58451;51.550;7.208;2023-07-31T00:34:04;100310.00;;;15.20
70831;BMP180;58451;51.550;7.208;2023-07-31T00:35:37;100306.80;;;15.20
70831;BMP180;58451;51.550;7.208;2023-07-31T00:37:08;100301.20;;;15.24
70831;BMP180;58451;51.550;7.208;2023-07-31T00:38:40;100314.40;;;15.30
70831;BMP180;58451;51.550;7.208;2023-07-31T00:40:12;100312.20;;;15.30
70831;BMP180;58451;51.550;7.208;2023-07-31T00:41:45;100310.60;;;15.40
70831;BMP180;58451;51.550;7.208;2023-07-31T00:43:17;100308.80;;;15.40
70831;BMP180;58451;51.550;7.208;2023-07-31T00:44:49;100310.40;;;15.40
70831;BMP180;58451;51.550;7.208;2023-07-31T00:46:21;100312.80;;;15.50
70831;BMP180;58451;51.550;7.208;2023-07-31T00:47:53;100311.20;;;15.50
70831;BMP180;58451;51.550;7.208;2023-07-31T00:49:26;100311.80;;;15.50
70831;BMP180;58451;51.550;7.208;2023-07-31T00:50:59;100314.60;;;15.50
70831;BMP180;58451;51.550;7.208;2023-07-31T00:52:32;100314.60;;;15.50
70831;BMP180;58451;51.550;7.208;2023-07-31T00:54:06;100313.40;;;15.50
70831;BMP180;58451;51.550;7.208;2023-07-31T00:55:38;100314.20;;;15.50
70831;BMP180;58451;51.550;7.208;2023-07-31T00:57:11;100307.00;;;15.50
70831;BMP180;58451;51.550;7.208;2023-07-31T00:58:43;100304.00;;;15.50
70831;BMP180;58451;51.550;7.208;2023-07-31T01:00:14;100306.20;;;15.50
70831;BMP180;58451;51.550;7.208;2023-07-31T01:04:09;100298.20;;;15.58
70831;BMP180;58451;51.550;7.208;2023-07-31T01:08:10;100300.60;;;15.60
70831;BMP180;58451;51.550;7.208;2023-07-31T01:11:30;100301.60;;;15.60
70831;BMP180;58451;51.550;7.208;2023-07-31T01:13:03;100308.00;;;15.64
70831;BMP180;58451;51.550;7.208;2023-07-31T01:14:35;100303.00;;;15.70
70831;BMP180;58451;51.550;7.208;2023-07-31T01:16:07;100305.20;;;15.70
70831;BMP180;58451;51.550;7.208;2023-07-31T01:17:42;100308.20;;;15.70
70831;BMP180;58451;51.550;7.208;2023-07-31T01:19:17;100308.40;;;15.70
70831;BMP180;58451;51.550;7.208;2023-07-31T01:21:02;100299.00;;;15.70
70831;BMP180;58451;51.550;7.208;2023-07-31T01:26:23;100295.40;;;15.70
70831;BMP180;58451;51.550;7.208;2023-07-31T01:28:06;100292.00;;;15.70
70831;BMP180;58451;51.550;7.208;2023-07-31T01:30:09;100297.80;;;15.70
70831;BMP180;58451;51.550;7.208;2023-07-31T01:31:50;100304.80;;;15.70
70831;BMP180;58451;51.550;7.208;2023-07-31T01:33:24;100307.60;;;15.70
70831;BMP180;58451;51.550;7.208;2023-07-31T01:34:59;100312.40;;;15.70
70831;BMP180;58451;51.550;7.208;2023-07-31T01:36:31;100313.80;;;15.70
70831;BMP180;58451;51.550;7.208;2023-07-31T01:38:05;100303.80;;;15.70
70831;BMP180;58451;51.550;7.208;2023-07-31T01:39:36;100306.60;;;15.70
70831;BMP180;58451;51.550;7.208;2023-07-31T01:41:08;100294.80;;;15.70
70831;BMP180;58451;51.550;7.208;2023-07-31T01:42:40;100302.20;;;15.70
70831;BMP180;58451;51.550;7.208;2023-07-31T01:44:12;100291.20;;;15.70
70831;BMP180;58451;51.550;7.208;2023-07-31T01:45:44;100291.40;;;15.70
70831;BMP180;58451;51.550;7.208;2023-07-31T01:47:16;100297.20;;;15.70
70831;BMP180;58451;51.550;7.208;2023-07-31T01:48:48;100284.80;;;15.70
70831;BMP180;58451;51.550;7.208;2023-07-31T01:50:20;100286.20;;;15.70
70831;BMP180;58451;51.550;7.208;2023-07-31T01:51:52;100287.20;;;15.70
70831;BMP180;58451;51.550;7.208;2023-07-31T01:53:24;100287.80;;;15.70
70831;BMP180;58451;51.550;7.208;2023-07-31T01:54:56;100287.80;;;15.70
70831;BMP180;58451;51.550;7.208;2023-07-31T01:56:28;100288.00;;;15.70
70831;BMP180;58451;51.550;7.208;2023-07-31T01:58:00;100288.40;;;15.70
70831;BMP180;58451;51.550;7.208;2023-07-31T01:59:32;100287.60;;;15.70
70831;BMP180;58451;51.550;7.208;2023-07-31T02:01:04;100285.60;;;15.70
70831;BMP180;58451;51.550;7.208;2023-07-31T02:02:38;100287.60;;;15.70
70831;BMP180;58451;51.550;7.208;2023-07-31T02:04:10;100283.80;;;15.70
70831;BMP180;58451;51.550;7.208;2023-07-31T02:05:47;100284.60;;;15.70
70831;BMP180;58451;51.550;7.208;2023-07-31T02:07:19;100284.20;;;15.70
70831;BMP180;58451;51.550;7.208;2023-07-31T02:08:51;100278.60;;;15.70
70831;BMP180;58451;51.550;7.208;2023-07-31T02:10:23;100283.20;;;15.70
70831;BMP180;58451;51.550;7.208;2023-07-31T02:11:55;100283.40;;;15.70
70831;BMP180;58451;51.550;7.208;2023-07-31T02:13:27;100283.00;;;15.70
70831;BMP180;58451;51.550;7.208;2023-07-31T02:14:59;100282.60;;;15.70
70831;BMP180;58451;51.550;7.208;2023-07-31T02:16:31;100282.00;;;15.70
70831;BMP180;58451;51.550;7.208;2023-07-31T02:18:05;100277.60;;;15.70
70831;BMP180;58451;51.550;7.208;2023-07-31T02:19:37;100270.00;;;15.70
70831;BMP180;58451;51.550;7.208;2023-07-31T02:21:09;100276.80;;;15.70
70831;BMP180;58451;51.550;7.208;2023-07-31T02:22:41;100272.80;;;15.70
70831;BMP180;58451;51.550;7.208;2023-07-31T02:24:13;100274.00;;;15.70
70831;BMP180;58451;51.550;7.208;2023-07-31T02:25:45;100270.00;;;15.70
70831;BMP180;58451;51.550;7.208;2023-07-31T02:27:18;100276.40;;;15.70
70831;BMP180;58451;51.550;7.208;2023-07-31T02:28:50;100275.20;;;15.70
70831;BMP180;58451;51.550;7.208;2023-07-31T02:30:22;100272.20;;;15.70
70831;BMP180;58451;51.550;7.208;2023-07-31T02:31:54;100275.40;;;15.70
70831;BMP180;58451;51.550;7.208;2023-07-31T02:33:26;100276.80;;;15.70
70831;BMP180;58451;51.550;7.208;2023-07-31T02:34:58;100272.60;;;15.70
70831;BMP180;58451;51.550;7.208;2023-07-31T02:36:30;100272.00;;;15.70
70831;BMP180;58451;51.550;7.208;2023-07-31T02:38:02;100273.00;;;15.70
70831;BMP180;58451;51.550;7.208;2023-07-31T02:39:34;100269.00;;;15.70
70831;BMP180;58451;51.550;7.208;2023-07-31T02:41:06;100266.40;;;15.70
70831;BMP180;58451;51.550;7.208;2023-07-31T02:42:38;100263.20;;;15.70
70831;BMP180;58451;51.550;7.208;2023-07-31T02:44:10;100261.40;;;15.70
70831;BMP180;58451;51.550;7.208;2023-07-31T02:45:52;100261.00;;;15.70
70831;BMP180;58451;51.550;7.208;2023-07-31T02:47:24;100260.40;;;15.70
70831;BMP180;58451;51.550;7.208;2023-07-31T02:48:56;100263.00;;;15.70
70831;BMP180;58451;51.550;7.208;2023-07-31T02:50:29;100264.60;;;15.70
70831;BMP180;58451;51.550;7.208;2023-07-31T02:52:01;100270.00;;;15.70
70831;BMP180;58451;51.550;7.208;2023-07-31T02:53:33;100269.40;;;15.70
70831;BMP180;58451;51.550;7.208;2023-07-31T02:55:06;100267.00;;;15.70
70831;BMP180;58451;51.550;7.208;2023-07-31T02:56:39;100265.00;;;15.72
70831;BMP180;58451;51.550;7.208;2023-07-31T02:58:11;100268.80;;;15.78
70831;BMP180;58451;51.550;7.208;2023-07-31T02:59:44;100259.00;;;15.76
70831;BMP180;58451;51.550;7.208;2023-07-31T03:01:15;100267.40;;;15.78
70831;BMP180;58451;51.550;7.208;2023-07-31T03:02:47;100262.80;;;15.80
70831;BMP180;58451;51.550;7.208;2023-07-31T03:04:19;100257.60;;;15.80
70831;BMP180;58451;51.550;7.208;2023-07-31T03:05:51;100252.80;;;15.80
70831;BMP180;58451;51.550;7.208;2023-07-31T03:07:24;100254.20;;;15.80
70831;BMP180;58451;51.550;7.208;2023-07-31T03:08:56;100252.00;;;15.78
70831;BMP180;58451;51.550;7.208;2023-07-31T03:10:28;100249.80;;;15.80
70831;BMP180;58451;51.550;7.208;2023-07-31T03:12:00;100250.40;;;15.80
70831;BMP180;58451;51.550;7.208;2023-07-31T03:13:32;100246.80;;;15.80
70831;BMP180;58451;51.550;7.208;2023-07-31T03:15:04;100254.00;;;15.80
70831;BMP180;58451;51.550;7.208;2023-07-31T03:16:37;100244.40;;;15.80
70831;BMP180;58451;51.550;7.208;2023-07-31T03:18:09;100252.80;;;15.80
70831;BMP180;58451;51.550;7.208;2023-07-31T03:19:41;100243.60;;;15.80
70831;BMP180;58451;51.550;7.208;2023-07-31T03:21:14;100245.40;;;15.80
70831;BMP180;58451;51.550;7.208;2023-07-31T03:22:46;100242.40;;;15.80
70831;BMP180;58451;51.550;7.208;2023-07-31T03:24:17;100248.00;;;15.80
70831;BMP180;58451;51.550;7.208;2023-07-31T03:26:06;100248.60;;;15.80
70831;BMP180;58451;51.550;7.208;2023-07-31T03:27:38;100247.40;;;15.80
70831;BMP180;58451;51.550;7.208;2023-07-31T03:29:10;100247.00;;;15.80
70831;BMP180;58451;51.550;7.208;2023-07-31T03:30:42;100249.80;;;15.80
70831;BMP180;58451;51.550;7.208;2023-07-31T03:32:13;100251.00;;;15.80
70831;BMP180;58451;51.550;7.208;2023-07-31T03:33:45;100244.00;;;15.80
70831;BMP180;58451;51.550;7.208;2023-07-31T03:35:17;100252.80;;;15.80
70831;BMP180;58451;51.550;7.208;2023-07-31T03:36:49;100245.80;;;15.80
70831;BMP180;58451;51.550;7.208;2023-07-31T03:38:21;100255.20;;;15.80
70831;BMP180;58451;51.550;7.208;2023-07-31T03:39:53;100259.20;;;15.80
70831;BMP180;58451;51.550;7.208;2023-07-31T03:41:24;100260.20;;;15.80
70831;BMP180;58451;51.550;7.208;2023-07-31T03:42:56;100253.40;;;15.80
70831;BMP180;58451;51.550;7.208;2023-07-31T03:44:28;100256.40;;;15.86
70831;BMP180;58451;51.550;7.208;2023-07-31T03:46:00;100250.60;;;15.84
70831;BMP180;58451;51.550;7.208;2023-07-31T03:47:32;100247.40;;;15.88
70831;BMP180;58451;51.550;7.208;2023-07-31T03:49:04;100249.00;;;15.88
70831;BMP180;58451;51.550;7.208;2023-07-31T03:50:36;100249.80;;;15.90
70831;BMP180;58451;51.550;7.208;2023-07-31T03:52:08;100246.80;;;15.90
70831;BMP180;58451;51.550;7.208;2023-07-31T03:53:40;100242.40;;;15.90
70831;BMP180;58451;51.550;7.208;2023-07-31T03:55:12;100245.00;;;15.90
70831;BMP180;58451;51.550;7.208;2023-07-31T03:56:44;100247.00;;;15.90
70831;BMP180;58451;51.550;7.208;2023-07-31T03:58:16;100242.00;;;15.90
70831;BMP180;58451;51.550;7.208;2023-07-31T03:59:47;100237.00;;;15.90
70831;BMP180;58451;51.550;7.208;2023-07-31T04:01:19;100243.60;;;15.98
70831;BMP180;58451;51.550;7.208;2023-07-31T04:02:51;100237.20;;;16.00
70831;BMP180;58451;51.550;7.208;2023-07-31T04:04:24;100243.60;;;16.00
70831;BMP180;58451;51.550;7.208;2023-07-31T04:05:56;100238.40;;;16.00
70831;BMP180;58451;51.550;7.208;2023-07-31T04:07:28;100237.00;;;16.00
70831;BMP180;58451;51.550;7.208;2023-07-31T04:09:00;100234.20;;;16.00
70831;BMP180;58451;51.550;7.208;2023-07-31T04:10:31;100240.20;;;16.00
70831;BMP180;58451;51.550;7.208;2023-07-31T04:12:05;100238.60;;;16.00
70831;BMP180;58451;51.550;7.208;2023-07-31T04:13:37;100238.80;;;16.02
70831;BMP180;58451;51.550;7.208;2023-07-31T04:15:09;100234.60;;;16.00
70831;BMP180;58451;51.550;7.208;2023-07-31T04:16:41;100238.80;;;16.06
70831;BMP180;58451;51.550;7.208;2023-07-31T04:18:13;100235.40;;;16.10
70831;BMP180;58451;51.550;7.208;2023-07-31T04:19:45;100232.60;;;16.10
70831;BMP180;58451;51.550;7.208;2023-07-31T04:21:17;100233.20;;;16.10
70831;BMP180;58451;51.550;7.208;2023-07-31T04:22:49;100230.80;;;16.16
70831;BMP180;58451;51.550;7.208;2023-07-31T04:24:21;100229.20;;;16.20
70831;BMP180;58451;51.550;7.208;2023-07-31T04:25:56;100226.80;;;16.20
70831;BMP180;58451;51.550;7.208;2023-07-31T04:27:28;100227.40;;;16.20
70831;BMP180;58451;51.550;7.208;2023-07-31T04:28:59;100226.00;;;16.20
70831;BMP180;58451;51.550;7.208;2023-07-31T04:30:31;100224.40;;;16.20
70831;BMP180;58451;51.550;7.208;2023-07-31T04:32:04;100222.00;;;16.30
70831;BMP180;58451;51.550;7.208;2023-07-31T04:33:35;100217.80;;;16.30
70831;BMP180;58451;51.550;7.208;2023-07-31T04:35:08;100214.20;;;16.30
70831;BMP180;58451;51.550;7.208;2023-07-31T04:36:39;100224.20;;;16.32
70831;BMP180;58451;51.550;7.208;2023-07-31T04:38:12;100220.20;;;16.38
70831;BMP180;58451;51.550;7.208;2023-07-31T04:39:44;100220.40;;;16.40
70831;BMP180;58451;51.550;7.208;2023-07-31T04:41:16;100214.40;;;16.40
70831;BMP180;58451;51.550;7.208;2023-07-31T04:42:47;100217.80;;;16.40
70831;BMP180;58451;51.550;7.208;2023-07-31T04:44:19;100213.40;;;16.40
70831;BMP180;58451;51.550;7.208;2023-07-31T04:45:51;100207.20;;;16.40
70831;BMP180;58451;51.550;7.208;2023-07-31T04:47:25;100212.80;;;16.40
70831;BMP180;58451;51.550;7.208;2023-07-31T04:48:57;100217.40;;;16.40
70831;BMP180;58451;51.550;7.208;2023-07-31T04:50:29;100212.80;;;16.40
70831;BMP180;58451;51.550;7.208;2023-07-31T04:52:02;100212.00;;;16.40
70831;BMP180;58451;51.550;7.208;2023-07-31T04:53:35;100213.20;;;16.40
70831;BMP180;58451;51.550;7.208;2023-07-31T04:55:08;100211.80;;;16.40
70831;BMP180;58451;51.550;7.208;2023-07-31T04:56:41;100216.40;;;16.40
70831;BMP180;58451;51.550;7.208;2023-07-31T04:58:13;100213.00;;;16.40
70831;BMP180;58451;51.550;7.208;2023-07-31T04:59:44;100214.40;;;16.40
70831;BMP180;58451;51.550;7.208;2023-07-31T05:01:19;100212.60;;;16.40
70831;BMP180;58451;51.550;7.208;2023-07-31T05:02:51;100214.60;;;16.40
70831;BMP180;58451;51.550;7.208;2023-07-31T05:04:23;100215.40;;;16.40
70831;BMP180;58451;51.550;7.208;2023-07-31T05:05:54;100214.40;;;16.40
70831;BMP180;58451;51.550;7.208;2023-07-31T05:07:26;100211.00;;;16.40
70831;BMP180;58451;51.550;7.208;2023-07-31T05:08:58;100206.00;;;16.30
70831;BMP180;58451;51.550;7.208;2023-07-31T05:10:30;100203.60;;;16.30
70831;BMP180;58451;51.550;7.208;2023-07-31T05:12:05;100201.00;;;16.30
70831;BMP180;58451;51.550;7.208;2023-07-31T05:13:37;100192.00;;;16.30
70831;BMP180;58451;51.550;7.208;2023-07-31T05:15:10;100199.60;;;16.30
70831;BMP180;58451;51.550;7.208;2023-07-31T05:16:41;100190.60;;;16.40
70831;BMP180;58451;51.550;7.208;2023-07-31T05:18:14;100193.20;;;16.40
70831;BMP180;58451;51.550;7.208;2023-07-31T05:19:46;100198.00;;;16.40
70831;BMP180;58451;51.550;7.208;2023-07-31T05:21:17;100195.40;;;16.40
70831;BMP180;58451;51.550;7.208;2023-07-31T05:22:50;100190.20;;;16.40
70831;BMP180;58451;51.550;7.208;2023-07-31T05:24:22;100189.00;;;16.50
70831;BMP180;58451;51.550;7.208;2023-07-31T05:25:54;100189.80;;;16.50
70831;BMP180;58451;51.550;7.208;2023-07-31T05:27:26;100192.80;;;16.50
70831;BMP180;58451;51.550;7.208;2023-07-31T05:28:58;100194.00;;;16.50
70831;BMP180;58451;51.550;7.208;2023-07-31T05:30:31;100187.60;;;16.50
70831;BMP180;58451;51.550;7.208;2023-07-31T05:32:03;100191.20;;;16.50
70831;BMP180;58451;51.550;7.208;2023-07-31T05:33:35;100186.20;;;16.48
70831;BMP180;58451;51.550;7.208;2023-07-31T05:35:07;100186.60;;;16.40
70831;BMP180;58451;51.550;7.208;2023-07-31T05:36:39;100181.60;;;16.40
70831;BMP180;58451;51.550;7.208;2023-07-31T05:38:12;100182.40;;;16.40
70831;BMP180;58451;51.550;7.208;2023-07-31T05:39:43;100182.20;;;16.40
70831;BMP180;58451;51.550;7.208;2023-07-31T05:41:15;100179.40;;;16.40
70831;BMP180;58451;51.550;7.208;2023-07-31T05:42:47;100175.00;;;16.40
70831;BMP180;58451;51.550;7.208;2023-07-31T05:44:19;100169.80;;;16.40
70831;BMP180;58451;51.550;7.208;2023-07-31T05:45:51;100168.40;;;16.40
70831;BMP180;58451;51.550;7.208;2023-07-31T05:47:23;100168.60;;;16.40
70831;BMP180;58451;51.550;7.208;2023-07-31T05:48:55;100165.80;;;16.40
70831;BMP180;58451;51.550;7.208;2023-07-31T05:50:27;100161.40;;;16.40
70831;BMP180;58451;51.550;7.208;2023-07-31T05:51:58;100157.00;;;16.40
70831;BMP180;58451;51.550;7.208;2023-07-31T05:53:30;100157.00;;;16.40
70831;BMP180;58451;51.550;7.208;2023-07-31T05:55:02;100155.00;;;16.40
70831;BMP180;58451;51.550;7.208;2023-07-31T05:56:34;100145.60;;;16.40
70831;BMP180;58451;51.550;7.208;2023-07-31T05:58:06;100143.00;;;16.40
70831;BMP180;58451;51.550;7.208;2023-07-31T05:59:38;100152.60;;;16.40
70831;BMP180;58451;51.550;7.208;2023-07-31T06:01:10;100147.20;;;16.40
70831;BMP180;58451;51.550;7.208;2023-07-31T06:02:42;100141.80;;;16.50
70831;BMP180;58451;51.550;7.208;2023-07-31T06:04:14;100142.80;;;16.50
70831;BMP180;58451;51.550;7.208;2023-07-31T06:05:46;100138.20;;;16.50
70831;BMP180;58451;51.550;7.208;2023-07-31T06:07:18;100142.60;;;16.50
70831;BMP180;58451;51.550;7.208;2023-07-31T06:08:50;100144.40;;;16.60
70831;BMP180;58451;51.550;7.208;2023-07-31T06:10:22;100138.80;;;16.60
70831;BMP180;58451;51.550;7.208;2023-07-31T06:11:54;100141.20;;;16.60
70831;BMP180;58451;51.550;7.208;2023-07-31T06:13:26;100139.80;;;16.52
70831;BMP180;58451;51.550;7.208;2023-07-31T06:14:58;100140.40;;;16.50
70831;BMP180;58451;51.550;7.208;2023-07-31T06:16:31;100137.20;;;16.50
70831;BMP180;58451;51.550;7.208;2023-07-31T06:18:02;100140.80;;;16.50
70831;BMP180;58451;51.550;7.208;2023-07-31T06:19:36;100142.20;;;16.50
70831;BMP180;58451;51.550;7.208;2023-07-31T06:21:10;100145.20;;;16.50
70831;BMP180;58451;51.550;7.208;2023-07-31T06:22:42;100141.40;;;16.50
70831;BMP180;58451;51.550;7.208;2023-07-31T06:24:14;100139.20;;;16.50
70831;BMP180;58451;51.550;7.208;2023-07-31T06:25:50;100139.00;;;16.50
70831;BMP180;58451;51.550;7.208;2023-07-31T06:27:22;100139.60;;;16.50
70831;BMP180;58451;51.550;7.208;2023-07-31T06:28:54;100138.60;;;16.50
70831;BMP180;58451;51.550;7.208;2023-07-31T06:30:26;100139.80;;;16.50
70831;BMP180;58451;51.550;7.208;2023-07-31T06:31:58;100139.80;;;16.50
70831;BMP180;58451;51.550;7.208;2023-07-31T06:33:34;100137.40;;;16.50
70831;BMP180;58451;51.550;7.208;2023-07-31T06:35:07;100142.20;;;16.50
70831;BMP180;58451;51.550;7.208;2023-07-31T06:36:39;100140.80;;;16.50
70831;BMP180;58451;51.550;7.208;2023-07-31T06:38:11;100139.40;;;16.50
70831;BMP180;58451;51.550;7.208;2023-07-31T06:39:43;100140.20;;;16.50
70831;BMP180;58451;51.550;7.208;2023-07-31T06:41:14;100139.80;;;16.46
70831;BMP180;58451;51.550;7.208;2023-07-31T06:42:46;100136.40;;;16.40
70831;BMP180;58451;51.550;7.208;2023-07-31T06:44:18;100135.60;;;16.40
70831;BMP180;58451;51.550;7.208;2023-07-31T06:45:50;100137.20;;;16.50
70831;BMP180;58451;51.550;7.208;2023-07-31T06:47:23;100134.20;;;16.46
70831;BMP180;58451;51.550;7.208;2023-07-31T06:48:55;100133.40;;;16.50
70831;BMP180;58451;51.550;7.208;2023-07-31T06:50:28;100129.20;;;16.50
70831;BMP180;58451;51.550;7.208;2023-07-31T06:51:59;100129.20;;;16.50
70831;BMP180;58451;51.550;7.208;2023-07-31T06:53:31;100124.80;;;16.50
70831;BMP180;58451;51.550;7.208;2023-07-31T06:55:17;100127.80;;;16.50
70831;BMP180;58451;51.550;7.208;2023-07-31T06:56:50;100133.40;;;16.50
70831;BMP180;58451;51.550;7.208;2023-07-31T06:58:22;100132.00;;;16.50
70831;BMP180;58451;51.550;7.208;2023-07-31T06:59:54;100129.00;;;16.50
70831;BMP180;58451;51.550;7.208;2023-07-31T07:01:25;100130.60;;;16.50
70831;BMP180;58451;51.550;7.208;2023-07-31T07:02:59;100126.40;;;16.50
70831;BMP180;58451;51.550;7.208;2023-07-31T07:04:31;100119.80;;;16.60
70831;BMP180;58451;51.550;7.208;2023-07-31T07:06:02;100126.00;;;16.60
70831;BMP180;58451;51.550;7.208;2023-07-31T07:07:35;100128.80;;;16.70
70831;BMP180;58451;51.550;7.208;2023-07-31T07:09:07;100132.00;;;16.70
70831;BMP180;58451;51.550;7.208;2023-07-31T07:10:39;100132.00;;;16.70
70831;BMP180;58451;51.550;7.208;2023-07-31T07:12:11;100132.20;;;16.70
70831;BMP180;58451;51.550;7.208;2023-07-31T07:13:43;100125.40;;;16.70
70831;BMP180;58451;51.550;7.208;2023-07-31T07:15:15;100128.20;;;16.70
70831;BMP180;58451;51.550;7.208;2023-07-31T07:16:51;100125.00;;;16.70
70831;BMP180;58451;51.550;7.208;2023-07-31T07:18:23;100128.60;;;16.70
70831;BMP180;58451;51.550;7.208;2023-07-31T07:19:55;100125.80;;;16.70
70831;BMP180;58451;51.550;7.208;2023-07-31T07:21:27;100132.40;;;16.74
70831;BMP180;58451;51.550;7.208;2023-07-31T07:22:59;100124.80;;;16.80
70831;BMP180;58451;51.550;7.208;2023-07-31T07:24:31;100121.20;;;16.80
70831;BMP180;58451;51.550;7.208;2023-07-31T07:26:03;100116.40;;;16.80
70831;BMP180;58451;51.550;7.208;2023-07-31T07:27:35;100113.00;;;16.80
70831;BMP180;58451;51.550;7.208;2023-07-31T07:29:06;100109.80;;;16.80
70831;BMP180;58451;51.550;7.208;2023-07-31T07:30:39;100123.40;;;16.80
70831;BMP180;58451;51.550;7.208;2023-07-31T07:32:13;100121.00;;;16.80
70831;BMP180;58451;51.550;7.208;2023-07-31T07:33:45;100122.60;;;16.80
70831;BMP180;58451;51.550;7.208;2023-07-31T07:35:17;100120.60;;;16.80
70831;BMP180;58451;51.550;7.208;2023-07-31T07:36:48;100116.00;;;16.80
70831;BMP180;58451;51.550;7.208;2023-07-31T07:38:20;100118.60;;;16.80
70831;BMP180;58451;51.550;7.208;2023-07-31T07:39:52;100116.00;;;16.80
70831;BMP180;58451;51.550;7.208;2023-07-31T07:41:24;100110.20;;;16.80
70831;BMP180;58451;51.550;7.208;2023-07-31T07:42:56;100112.00;;;16.80
70831;BMP180;58451;51.550;7.208;2023-07-31T07:44:28;100112.00;;;16.88
70831;BMP180;58451;51.550;7.208;2023-07-31T07:46:00;100112.80;;;16.90
70831;BMP180;58451;51.550;7.208;2023-07-31T07:47:32;100115.60;;;16.90
70831;BMP180;58451;51.550;7.208;2023-07-31T07:49:04;100117.60;;;16.90
70831;BMP180;58451;51.550;7.208;2023-07-31T07:50:38;100119.20;;;16.90
70831;BMP180;58451;51.550;7.208;2023-07-31T07:52:10;100120.80;;;16.80
70831;BMP180;58451;51.550;7.208;2023-07-31T07:53:42;100116.80;;;16.80
70831;BMP180;58451;51.550;7.208;2023-07-31T07:55:14;100118.40;;;16.80
70831;BMP180;58451;51.550;7.208;2023-07-31T07:56:46;100111.40;;;16.88
70831;BMP180;58451;51.550;7.208;2023-07-31T07:58:18;100116.60;;;16.90
70831;BMP180;58451;51.550;7.208;2023-07-31T07:59:50;100110.20;;;16.90
70831;BMP180;58451;51.550;7.208;2023-07-31T08:01:21;100113.60;;;16.90
70831;BMP180;58451;51.550;7.208;2023-07-31T08:02:53;100112.80;;;16.90
70831;BMP180;58451;51.550;7.208;2023-07-31T08:04:25;100110.20;;;16.90
70831;BMP180;58451;51.550;7.208;2023-07-31T08:06:01;100111.60;;;16.90
70831;BMP180;58451;51.550;7.208;2023-07-31T08:07:33;100108.00;;;17.00
70831;BMP180;58451;51.550;7.208;2023-07-31T08:09:04;100105.80;;;17.00
70831;BMP180;58451;51.550;7.208;2023-07-31T08:10:38;100103.40;;;17.04
70831;BMP180;58451;51.550;7.208;2023-07-31T08:12:10;100103.80;;;17.10
70831;BMP180;58451;51.550;7.208;2023-07-31T08:13:41;100104.60;;;17.10
70831;BMP180;58451;51.550;7.208;2023-07-31T08:15:13;100101.00;;;17.20
70831;BMP180;58451;51.550;7.208;2023-07-31T08:16:45;100102.00;;;17.20
70831;BMP180;58451;51.550;7.208;2023-07-31T08:18:17;100096.40;;;17.10
70831;BMP180;58451;51.550;7.208;2023-07-31T08:19:50;100085.80;;;17.16
70831;BMP180;58451;51.550;7.208;2023-07-31T08:21:22;100094.40;;;17.10
70831;BMP180;58451;51.550;7.208;2023-07-31T08:22:54;100093.20;;;17.10
70831;BMP180;58451;51.550;7.208;2023-07-31T08:24:26;100093.60;;;17.10
70831;BMP180;58451;51.550;7.208;2023-07-31T08:25:58;100092.80;;;17.10
70831;BMP180;58451;51.550;7.208;2023-07-31T08:27:30;100089.40;;;17.10
70831;BMP180;58451;51.550;7.208;2023-07-31T08:29:02;100085.60;;;17.10
70831;BMP180;58451;51.550;7.208;2023-07-31T08:30:34;100088.20;;;17.10
70831;BMP180;58451;51.550;7.208;2023-07-31T08:32:06;100084.20;;;17.20
70831;BMP180;58451;51.550;7.208;2023-07-31T08:33:39;100084.20;;;17.22
70831;BMP180;58451;51.550;7.208;2023-07-31T08:35:11;100087.60;;;17.20
70831;BMP180;58451;51.550;7.208;2023-07-31T08:36:43;100088.60;;;17.20
70831;BMP180;58451;51.550;7.208;2023-07-31T08:38:15;100088.80;;;17.10
70831;BMP180;58451;51.550;7.208;2023-07-31T08:39:47;100093.00;;;17.10
70831;BMP180;58451;51.550;7.208;2023-07-31T08:41:19;100079.60;;;17.04
70831;BMP180;58451;51.550;7.208;2023-07-31T08:42:54;100083.20;;;17.00
70831;BMP180;58451;51.550;7.208;2023-07-31T08:44:30;100079.40;;;17.00
70831;BMP180;58451;51.550;7.208;2023-07-31T08:46:03;100083.80;;;17.20
70831;BMP180;58451;51.550;7.208;2023-07-31T08:47:36;100082.20;;;17.24
70831;BMP180;58451;51.550;7.208;2023-07-31T08:49:10;100086.00;;;17.30
70831;BMP180;58451;51.550;7.208;2023-07-31T08:50:43;100081.40;;;17.24
70831;BMP180;58451;51.550;7.208;2023-07-31T08:52:15;100085.40;;;17.20
70831;BMP180;58451;51.550;7.208;2023-07-31T08:53:47;100082.60;;;17.10
70831;BMP180;58451;51.550;7.208;2023-07-31T08:55:19;100083.80;;;17.10